Aérodrome :
LOGIN :

S'inscrire | Disclaimer

   EN    FR    IT 

 










Légende :    VFR   VFR Marginal   IFR   IFR Intensif   IFR Très Intensif
Visi : 
Plafond : 
>= 8 km
>= 3000ft
5 à 8 km
1000 à 3000 ft
1500m à 5 km
500 à 1000 ft
800 à 1500m
200 à 500 ft
< 800m
< 200 ft
Symboles :   Orages  Brouillard  Fortes neiges  Fortes précipitations  Vent > 20 kt
SIGMETs :   Divers  Orages  Givrage  Turbulence  Onde Orograph.  Cendres Volcan.







- Altitude de l'aérodrome : 1363 ft


ETIC - Grafenwohr Army Air Field

DERNIER METAR :
  • 220558Z AUTO 25007KT 9999 -RA OVC006 08/08 A2981 RMK AO2 RAE26DZB26E31RAB31 SLP104 P0002 60004 57017

METARs EXPIRÉS :
  • 220458Z AUTO 25008KT 9999 -RA BKN006 OVC010 08/08 A2982 RMK AO2 RAE0358RAB14E24RAB49 SLP107 P0001
  • 220449Z AUTO 24008KT 9999 -RA BKN006 OVC010 08/07 A2982 RMK AO2 RAE0358RAB14E24RAB49
  • 220424Z AUTO 23008KT 9999 OVC006 08/08 A2983 RMK AO2 RAE0358RAB14E24 OVC V BKN
  • 220414Z AUTO 23005KT 9999 -RA OVC006 08/07 A2984 RMK AO2 RAE0358RAB14 OVC V BKN
  • 220359Z AUTO 23004KT 9999 BKN006 OVC010 08/07 A2984 RMK AO2 RAE58
  • 220329Z AUTO 24005KT 9000 -RA BR OVC006 08/07 A2985 RMK AO2 RAB17
  • 220317Z AUTO 24007KT 8000 -RA BR OVC005 08/07 A2986 RMK AO2 RAB17
  • 220309Z AUTO 23004KT 9999 OVC005 08/07 A2986 RMK AO2

TAF TAF ETIC
Valide du 22 à 06h jusqu'au 23 à 12h UTC


220602Z 2206/2312 24012KT 9000 -DZ OVC006 620509 621402 QNH2976INS
TEMPO 2207/2211 25025G35KT OVC010 520004
BECMG 2210/2211 25025G35KT 9000 -RA OVC020 620509 621402 520004 QNH2976INS
BECMG 2217/2218 25025G35KT 8000 -RA OVC010 620609 621501 520001 QNH2975INS
BECMG 2305/2306 25012G18KT 9999 NSW SCT010 OVC040 620709 621602 QNH2972INS TX09/2214Z TN05/2304Z
Pas de NOTAMs connus pour ce terrain.



MET'MAP, la Météo Aéronautique d'un coup d'oeil ! - Copyright ORBIFLY Décembre 2007 - Disclaimer

ORBIFLY MET'MAP TEAM :

Programmation & Développement : Alexandra Zaïnal
Conception & Développement : Baudouin d'Aumeries
Co-Programmation & Développement : Marc-Olivier Méhu
Soutien technique & logistique : Manuel Goepfert

Contact : metmap@orbifly.com




SOURCES & CREDITS :

   NOAA